sensor_id;sensor_type;location;lat;lon;timestamp;P1;durP1;ratioP1;P2;durP2;ratioP2
55003;SDS011;40900;52.710;6.438;2023-10-09T00:02:05;12.85;;;6.47;;
55003;SDS011;40900;52.710;6.438;2023-10-09T00:04:39;14.32;;;7.45;;
55003;SDS011;40900;52.710;6.438;2023-10-09T00:07:10;15.88;;;7.07;;
55003;SDS011;40900;52.710;6.438;2023-10-09T00:09:37;11.60;;;6.80;;
55003;SDS011;40900;52.710;6.438;2023-10-09T00:14:41;15.50;;;7.85;;
55003;SDS011;40900;52.710;6.438;2023-10-09T00:17:13;14.63;;;7.60;;
55003;SDS011;40900;52.710;6.438;2023-10-09T00:19:43;14.13;;;7.93;;
55003;SDS011;40900;52.710;6.438;2023-10-09T00:22:13;16.77;;;8.02;;
55003;SDS011;40900;52.710;6.438;2023-10-09T00:24:52;17.20;;;8.45;;
55003;SDS011;40900;52.710;6.438;2023-10-09T00:27:42;10.48;;;6.97;;
55003;SDS011;40900;52.710;6.438;2023-10-09T00:30:14;18.15;;;8.05;;
55003;SDS011;40900;52.710;6.438;2023-10-09T00:32:43;16.23;;;7.93;;
55003;SDS011;40900;52.710;6.438;2023-10-09T00:35:26;14.13;;;7.60;;
55003;SDS011;40900;52.710;6.438;2023-10-09T00:38:05;12.50;;;8.20;;
55003;SDS011;40900;52.710;6.438;2023-10-09T00:40:54;15.40;;;8.70;;
55003;SDS011;40900;52.710;6.438;2023-10-09T00:43:30;19.77;;;9.05;;
55003;SDS011;40900;52.710;6.438;2023-10-09T00:45:57;16.90;;;8.30;;
55003;SDS011;40900;52.710;6.438;2023-10-09T00:48:48;16.92;;;9.50;;
55003;SDS011;40900;52.710;6.438;2023-10-09T00:51:16;18.63;;;10.20;;
55003;SDS011;40900;52.710;6.438;2023-10-09T00:53:52;15.82;;;8.88;;
55003;SDS011;40900;52.710;6.438;2023-10-09T00:56:23;18.92;;;8.98;;
55003;SDS011;40900;52.710;6.438;2023-10-09T00:58:50;15.27;;;9.35;;
55003;SDS011;40900;52.710;6.438;2023-10-09T01:01:32;15.65;;;9.20;;
55003;SDS011;40900;52.710;6.438;2023-10-09T01:04:03;18.52;;;9.10;;
55003;SDS011;40900;52.710;6.438;2023-10-09T01:06:36;16.73;;;10.13;;
55003;SDS011;40900;52.710;6.438;2023-10-09T01:09:10;17.98;;;10.52;;
55003;SDS011;40900;52.710;6.438;2023-10-09T01:11:43;17.50;;;10.88;;
55003;SDS011;40900;52.710;6.438;2023-10-09T01:14:31;18.40;;;12.05;;
55003;SDS011;40900;52.710;6.438;2023-10-09T01:17:06;22.63;;;11.90;;
55003;SDS011;40900;52.710;6.438;2023-10-09T01:19:36;24.20;;;11.77;;
55003;SDS011;40900;52.710;6.438;2023-10-09T01:22:02;19.52;;;12.25;;
55003;SDS011;40900;52.710;6.438;2023-10-09T01:24:38;21.45;;;13.10;;
55003;SDS011;40900;52.710;6.438;2023-10-09T01:27:05;27.13;;;13.77;;
55003;SDS011;40900;52.710;6.438;2023-10-09T01:32:07;21.13;;;12.80;;
55003;SDS011;40900;52.710;6.438;2023-10-09T01:34:41;22.85;;;13.00;;
55003;SDS011;40900;52.710;6.438;2023-10-09T01:37:15;27.13;;;13.80;;
55003;SDS011;40900;52.710;6.438;2023-10-09T01:39:47;25.02;;;13.93;;
55003;SDS011;40900;52.710;6.438;2023-10-09T01:42:16;26.33;;;14.63;;
55003;SDS011;40900;52.710;6.438;2023-10-09T01:44:54;23.48;;;13.70;;
55003;SDS011;40900;52.710;6.438;2023-10-09T01:47:20;26.63;;;15.38;;
55003;SDS011;40900;52.710;6.438;2023-10-09T01:49:47;25.35;;;14.40;;
55003;SDS011;40900;52.710;6.438;2023-10-09T01:52:18;28.92;;;15.95;;
55003;SDS011;40900;52.710;6.438;2023-10-09T01:54:46;28.23;;;16.58;;
55003;SDS011;40900;52.710;6.438;2023-10-09T01:57:17;29.23;;;16.90;;
55003;SDS011;40900;52.710;6.438;2023-10-09T01:59:50;26.58;;;16.27;;
55003;SDS011;40900;52.710;6.438;2023-10-09T02:02:20;28.67;;;17.40;;
55003;SDS011;40900;52.710;6.438;2023-10-09T02:04:55;30.67;;;18.25;;
55003;SDS011;40900;52.710;6.438;2023-10-09T02:07:38;33.67;;;18.77;;
55003;SDS011;40900;52.710;6.438;2023-10-09T02:10:10;30.60;;;18.55;;
55003;SDS011;40900;52.710;6.438;2023-10-09T02:13:13;38.40;;;20.45;;
55003;SDS011;40900;52.710;6.438;2023-10-09T02:15:47;39.65;;;21.35;;
55003;SDS011;40900;52.710;6.438;2023-10-09T02:18:16;37.25;;;22.08;;
55003;SDS011;40900;52.710;6.438;2023-10-09T02:21:05;42.75;;;23.17;;
55003;SDS011;40900;52.710;6.438;2023-10-09T02:23:33;37.65;;;22.90;;
55003;SDS011;40900;52.710;6.438;2023-10-09T02:26:09;43.88;;;24.83;;
55003;SDS011;40900;52.710;6.438;2023-10-09T02:28:43;41.72;;;24.85;;
55003;SDS011;40900;52.710;6.438;2023-10-09T02:31:10;48.47;;;26.20;;
55003;SDS011;40900;52.710;6.438;2023-10-09T02:33:36;45.35;;;25.90;;
55003;SDS011;40900;52.710;6.438;2023-10-09T02:36:04;45.13;;;26.95;;
55003;SDS011;40900;52.710;6.438;2023-10-09T02:38:31;48.90;;;26.88;;
55003;SDS011;40900;52.710;6.438;2023-10-09T02:41:06;47.70;;;27.88;;
55003;SDS011;40900;52.710;6.438;2023-10-09T02:43:38;45.72;;;26.15;;
55003;SDS011;40900;52.710;6.438;2023-10-09T02:46:13;53.10;;;28.05;;
55003;SDS011;40900;52.710;6.438;2023-10-09T02:48:44;53.20;;;30.20;;
55003;SDS011;40900;52.710;6.438;2023-10-09T02:51:16;51.15;;;30.15;;
55003;SDS011;40900;52.710;6.438;2023-10-09T02:53:54;55.30;;;31.85;;
55003;SDS011;40900;52.710;6.438;2023-10-09T02:56:52;50.30;;;30.67;;
55003;SDS011;40900;52.710;6.438;2023-10-09T02:59:21;64.93;;;32.67;;
55003;SDS011;40900;52.710;6.438;2023-10-09T03:01:48;59.22;;;35.47;;
55003;SDS011;40900;52.710;6.438;2023-10-09T03:04:14;65.82;;;36.08;;
55003;SDS011;40900;52.710;6.438;2023-10-09T03:06:41;65.55;;;37.00;;
55003;SDS011;40900;52.710;6.438;2023-10-09T03:09:18;71.32;;;36.70;;
55003;SDS011;40900;52.710;6.438;2023-10-09T03:11:51;61.88;;;36.15;;
55003;SDS011;40900;52.710;6.438;2023-10-09T03:14:25;65.43;;;40.25;;
55003;SDS011;40900;52.710;6.438;2023-10-09T03:16:52;69.00;;;38.90;;
55003;SDS011;40900;52.710;6.438;2023-10-09T03:19:18;65.72;;;39.05;;
55003;SDS011;40900;52.710;6.438;2023-10-09T03:21:43;69.50;;;40.05;;
55003;SDS011;40900;52.710;6.438;2023-10-09T03:24:10;80.60;;;42.67;;
55003;SDS011;40900;52.710;6.438;2023-10-09T03:26:36;79.55;;;41.55;;
55003;SDS011;40900;52.710;6.438;2023-10-09T03:29:02;73.55;;;42.28;;
55003;SDS011;40900;52.710;6.438;2023-10-09T03:31:32;79.60;;;42.45;;
55003;SDS011;40900;52.710;6.438;2023-10-09T03:33:59;76.50;;;41.80;;
55003;SDS011;40900;52.710;6.438;2023-10-09T03:36:25;69.97;;;39.22;;
55003;SDS011;40900;52.710;6.438;2023-10-09T03:38:55;73.35;;;39.90;;
55003;SDS011;40900;52.710;6.438;2023-10-09T03:41:25;78.75;;;41.17;;
55003;SDS011;40900;52.710;6.438;2023-10-09T03:43:52;74.30;;;41.00;;
55003;SDS011;40900;52.710;6.438;2023-10-09T03:46:19;70.45;;;39.40;;
55003;SDS011;40900;52.710;6.438;2023-10-09T03:48:57;70.97;;;40.35;;
55003;SDS011;40900;52.710;6.438;2023-10-09T03:51:26;71.80;;;40.28;;
55003;SDS011;40900;52.710;6.438;2023-10-09T03:53:52;72.50;;;40.13;;
55003;SDS011;40900;52.710;6.438;2023-10-09T03:56:18;68.55;;;40.30;;
55003;SDS011;40900;52.710;6.438;2023-10-09T03:58:47;72.03;;;40.95;;
55003;SDS011;40900;52.710;6.438;2023-10-09T04:01:22;71.75;;;41.42;;
55003;SDS011;40900;52.710;6.438;2023-10-09T04:03:57;65.75;;;38.90;;
55003;SDS011;40900;52.710;6.438;2023-10-09T04:06:28;68.82;;;39.97;;
55003;SDS011;40900;52.710;6.438;2023-10-09T04:08:58;68.15;;;40.17;;
55003;SDS011;40900;52.710;6.438;2023-10-09T04:11:44;68.22;;;38.90;;
55003;SDS011;40900;52.710;6.438;2023-10-09T04:14:22;76.30;;;40.05;;
55003;SDS011;40900;52.710;6.438;2023-10-09T04:16:58;66.38;;;39.45;;
55003;SDS011;40900;52.710;6.438;2023-10-09T04:19:32;69.20;;;39.58;;
55003;SDS011;40900;52.710;6.438;2023-10-09T04:22:13;65.57;;;38.45;;
55003;SDS011;40900;52.710;6.438;2023-10-09T04:24:52;61.28;;;37.20;;
55003;SDS011;40900;52.710;6.438;2023-10-09T04:27:18;70.57;;;37.92;;
55003;SDS011;40900;52.710;6.438;2023-10-09T04:29:52;66.70;;;38.55;;
55003;SDS011;40900;52.710;6.438;2023-10-09T04:32:19;60.47;;;37.35;;
55003;SDS011;40900;52.710;6.438;2023-10-09T04:34:50;64.00;;;38.28;;
55003;SDS011;40900;52.710;6.438;2023-10-09T04:37:42;63.40;;;38.72;;
55003;SDS011;40900;52.710;6.438;2023-10-09T04:40:10;66.13;;;39.25;;
55003;SDS011;40900;52.710;6.438;2023-10-09T04:42:58;61.40;;;37.10;;
55003;SDS011;40900;52.710;6.438;2023-10-09T04:45:24;57.53;;;35.00;;
55003;SDS011;40900;52.710;6.438;2023-10-09T04:48:09;59.17;;;35.60;;
55003;SDS011;40900;52.710;6.438;2023-10-09T04:50:35;57.97;;;36.15;;
55003;SDS011;40900;52.710;6.438;2023-10-09T04:53:12;65.38;;;37.17;;
55003;SDS011;40900;52.710;6.438;2023-10-09T04:55:43;55.15;;;34.22;;
55003;SDS011;40900;52.710;6.438;2023-10-09T04:58:22;60.10;;;34.58;;
55003;SDS011;40900;52.710;6.438;2023-10-09T05:00:49;55.40;;;36.47;;
55003;SDS011;40900;52.710;6.438;2023-10-09T05:03:35;60.80;;;35.90;;
55003;SDS011;40900;52.710;6.438;2023-10-09T05:06:04;60.13;;;35.75;;
55003;SDS011;40900;52.710;6.438;2023-10-09T05:08:48;63.40;;;33.88;;
55003;SDS011;40900;52.710;6.438;2023-10-09T05:11:14;55.25;;;33.20;;
55003;SDS011;40900;52.710;6.438;2023-10-09T05:13:59;57.63;;;33.42;;
55003;SDS011;40900;52.710;6.438;2023-10-09T05:16:38;61.88;;;33.05;;
55003;SDS011;40900;52.710;6.438;2023-10-09T05:22:20;50.25;;;32.80;;
55003;SDS011;40900;52.710;6.438;2023-10-09T05:24:58;55.08;;;32.92;;
55003;SDS011;40900;52.710;6.438;2023-10-09T05:27:24;48.35;;;30.95;;
55003;SDS011;40900;52.710;6.438;2023-10-09T05:30:10;51.38;;;31.27;;
55003;SDS011;40900;52.710;6.438;2023-10-09T05:32:53;58.38;;;33.55;;
55003;SDS011;40900;52.710;6.438;2023-10-09T05:35:45;48.35;;;29.83;;
55003;SDS011;40900;52.710;6.438;2023-10-09T05:38:32;54.22;;;31.60;;
55003;SDS011;40900;52.710;6.438;2023-10-09T05:41:09;52.55;;;30.00;;
55003;SDS011;40900;52.710;6.438;2023-10-09T05:43:53;44.95;;;28.13;;
55003;SDS011;40900;52.710;6.438;2023-10-09T05:46:38;46.70;;;27.13;;
55003;SDS011;40900;52.710;6.438;2023-10-09T05:49:14;47.67;;;28.80;;
55003;SDS011;40900;52.710;6.438;2023-10-09T05:51:49;48.25;;;28.38;;
55003;SDS011;40900;52.710;6.438;2023-10-09T05:54:18;45.08;;;26.77;;
55003;SDS011;40900;52.710;6.438;2023-10-09T05:57:03;44.00;;;26.67;;
55003;SDS011;40900;52.710;6.438;2023-10-09T05:59:54;45.92;;;25.45;;
55003;SDS011;40900;52.710;6.438;2023-10-09T06:02:38;42.38;;;24.80;;
55003;SDS011;40900;52.710;6.438;2023-10-09T06:05:30;41.42;;;23.88;;
55003;SDS011;40900;52.710;6.438;2023-10-09T06:08:16;41.63;;;24.05;;
55003;SDS011;40900;52.710;6.438;2023-10-09T06:11:04;37.28;;;23.55;;
55003;SDS011;40900;52.710;6.438;2023-10-09T06:13:56;37.63;;;22.60;;
55003;SDS011;40900;52.710;6.438;2023-10-09T06:16:39;39.17;;;22.83;;
55003;SDS011;40900;52.710;6.438;2023-10-09T06:19:25;35.80;;;21.70;;
55003;SDS011;40900;52.710;6.438;2023-10-09T06:21:52;40.95;;;20.85;;
55003;SDS011;40900;52.710;6.438;2023-10-09T06:24:36;34.03;;;19.75;;
55003;SDS011;40900;52.710;6.438;2023-10-09T06:27:19;29.70;;;18.90;;
55003;SDS011;40900;52.710;6.438;2023-10-09T06:29:55;28.65;;;17.40;;
55003;SDS011;40900;52.710;6.438;2023-10-09T06:32:49;29.23;;;17.17;;
55003;SDS011;40900;52.710;6.438;2023-10-09T06:35:16;36.80;;;17.88;;
55003;SDS011;40900;52.710;6.438;2023-10-09T06:37:55;29.75;;;16.00;;
55003;SDS011;40900;52.710;6.438;2023-10-09T06:40:26;29.48;;;15.93;;
55003;SDS011;40900;52.710;6.438;2023-10-09T06:43:14;31.13;;;16.52;;
55003;SDS011;40900;52.710;6.438;2023-10-09T06:45:43;27.67;;;16.38;;
55003;SDS011;40900;52.710;6.438;2023-10-09T06:48:09;30.25;;;15.35;;
55003;SDS011;40900;52.710;6.438;2023-10-09T06:50:54;30.52;;;14.75;;
55003;SDS011;40900;52.710;6.438;2023-10-09T06:53:41;31.05;;;14.50;;
55003;SDS011;40900;52.710;6.438;2023-10-09T06:56:20;25.00;;;14.05;;
55003;SDS011;40900;52.710;6.438;2023-10-09T06:58:55;25.92;;;14.48;;
55003;SDS011;40900;52.710;6.438;2023-10-09T07:01:29;29.00;;;14.80;;
55003;SDS011;40900;52.710;6.438;2023-10-09T07:06:44;28.60;;;13.40;;
55003;SDS011;40900;52.710;6.438;2023-10-09T07:09:10;27.38;;;13.82;;
55003;SDS011;40900;52.710;6.438;2023-10-09T07:11:40;28.73;;;12.93;;
55003;SDS011;40900;52.710;6.438;2023-10-09T07:16:59;31.27;;;12.63;;
55003;SDS011;40900;52.710;6.438;2023-10-09T07:19:43;22.73;;;12.80;;
55003;SDS011;40900;52.710;6.438;2023-10-09T07:22:12;25.80;;;12.13;;
55003;SDS011;40900;52.710;6.438;2023-10-09T07:24:51;23.13;;;12.23;;
55003;SDS011;40900;52.710;6.438;2023-10-09T07:27:21;32.60;;;19.70;;
55003;SDS011;40900;52.710;6.438;2023-10-09T07:30:06;30.10;;;11.85;;
55003;SDS011;40900;52.710;6.438;2023-10-09T07:32:52;24.75;;;12.13;;
55003;SDS011;40900;52.710;6.438;2023-10-09T07:35:20;19.48;;;11.20;;
55003;SDS011;40900;52.710;6.438;2023-10-09T07:38:04;30.65;;;11.70;;
55003;SDS011;40900;52.710;6.438;2023-10-09T07:40:34;24.35;;;11.77;;
55003;SDS011;40900;52.710;6.438;2023-10-09T07:43:30;25.05;;;12.48;;
55003;SDS011;40900;52.710;6.438;2023-10-09T07:46:17;23.80;;;11.93;;
55003;SDS011;40900;52.710;6.438;2023-10-09T07:49:00;23.13;;;11.48;;
55003;SDS011;40900;52.710;6.438;2023-10-09T07:51:34;22.02;;;11.23;;
55003;SDS011;40900;52.710;6.438;2023-10-09T07:54:01;31.67;;;12.25;;
55003;SDS011;40900;52.710;6.438;2023-10-09T07:56:34;32.67;;;12.88;;
55003;SDS011;40900;52.710;6.438;2023-10-09T07:59:09;24.67;;;11.98;;
55003;SDS011;40900;52.710;6.438;2023-10-09T08:01:45;25.02;;;12.07;;
55003;SDS011;40900;52.710;6.438;2023-10-09T08:04:18;18.88;;;10.45;;
55003;SDS011;40900;52.710;6.438;2023-10-09T08:07:02;23.30;;;12.30;;
55003;SDS011;40900;52.710;6.438;2023-10-09T08:09:37;21.83;;;10.88;;
55003;SDS011;40900;52.710;6.438;2023-10-09T08:12:27;26.48;;;11.80;;
55003;SDS011;40900;52.710;6.438;2023-10-09T08:15:23;30.13;;;11.23;;
55003;SDS011;40900;52.710;6.438;2023-10-09T08:18:16;27.40;;;11.75;;
55003;SDS011;40900;52.710;6.438;2023-10-09T08:20:54;23.42;;;11.60;;
55003;SDS011;40900;52.710;6.438;2023-10-09T08:23:23;27.33;;;14.45;;
55003;SDS011;40900;52.710;6.438;2023-10-09T08:25:59;22.08;;;11.63;;
55003;SDS011;40900;52.710;6.438;2023-10-09T08:28:37;23.27;;;11.35;;
55003;SDS011;40900;52.710;6.438;2023-10-09T08:31:17;26.92;;;11.10;;
55003;SDS011;40900;52.710;6.438;2023-10-09T08:33:47;20.63;;;11.68;;
55003;SDS011;40900;52.710;6.438;2023-10-09T08:36:25;28.02;;;12.13;;
55003;SDS011;40900;52.710;6.438;2023-10-09T08:39:01;25.73;;;12.00;;
55003;SDS011;40900;52.710;6.438;2023-10-09T08:41:42;29.15;;;12.90;;
55003;SDS011;40900;52.710;6.438;2023-10-09T08:44:08;25.92;;;11.70;;
55003;SDS011;40900;52.710;6.438;2023-10-09T08:46:40;22.23;;;11.45;;
55003;SDS011;40900;52.710;6.438;2023-10-09T08:49:07;23.02;;;11.23;;
55003;SDS011;40900;52.710;6.438;2023-10-09T08:51:35;23.70;;;11.02;;
55003;SDS011;40900;52.710;6.438;2023-10-09T08:54:01;30.98;;;11.60;;
55003;SDS011;40900;52.710;6.438;2023-10-09T08:56:27;29.13;;;11.93;;
55003;SDS011;40900;52.710;6.438;2023-10-09T08:58:56;26.65;;;11.60;;
55003;SDS011;40900;52.710;6.438;2023-10-09T09:01:24;30.17;;;11.55;;
55003;SDS011;40900;52.710;6.438;2023-10-09T09:03:51;24.27;;;11.52;;
55003;SDS011;40900;52.710;6.438;2023-10-09T09:06:20;27.77;;;11.85;;
55003;SDS011;40900;52.710;6.438;2023-10-09T09:08:48;28.45;;;11.25;;
55003;SDS011;40900;52.710;6.438;2023-10-09T09:11:19;29.80;;;11.43;;
55003;SDS011;40900;52.710;6.438;2023-10-09T09:16:28;27.98;;;11.00;;
55003;SDS011;40900;52.710;6.438;2023-10-09T09:19:06;23.65;;;11.15;;
55003;SDS011;40900;52.710;6.438;2023-10-09T09:21:33;29.45;;;10.98;;
55003;SDS011;40900;52.710;6.438;2023-10-09T09:24:05;63.28;;;13.68;;
55003;SDS011;40900;52.710;6.438;2023-10-09T09:26:55;27.48;;;10.80;;
55003;SDS011;40900;52.710;6.438;2023-10-09T09:29:54;62.70;;;14.38;;
55003;SDS011;40900;52.710;6.438;2023-10-09T09:32:30;23.27;;;11.27;;
55003;SDS011;40900;52.710;6.438;2023-10-09T09:35:03;28.00;;;12.15;;
55003;SDS011;40900;52.710;6.438;2023-10-09T09:37:31;29.48;;;12.10;;
55003;SDS011;40900;52.710;6.438;2023-10-09T09:40:07;23.83;;;11.63;;
55003;SDS011;40900;52.710;6.438;2023-10-09T09:42:51;24.05;;;11.55;;
55003;SDS011;40900;52.710;6.438;2023-10-09T09:45:21;23.42;;;10.07;;
55003;SDS011;40900;52.710;6.438;2023-10-09T09:47:49;28.33;;;11.30;;
55003;SDS011;40900;52.710;6.438;2023-10-09T09:50:17;25.45;;;10.52;;
55003;SDS011;40900;52.710;6.438;2023-10-09T09:52:50;24.73;;;10.98;;
55003;SDS011;40900;52.710;6.438;2023-10-09T09:55:22;29.20;;;11.43;;
55003;SDS011;40900;52.710;6.438;2023-10-09T10:00:28;26.75;;;10.93;;
55003;SDS011;40900;52.710;6.438;2023-10-09T10:03:12;25.73;;;10.30;;
55003;SDS011;40900;52.710;6.438;2023-10-09T10:05:42;20.63;;;9.32;;
55003;SDS011;40900;52.710;6.438;2023-10-09T10:08:14;46.75;;;12.10;;
55003;SDS011;40900;52.710;6.438;2023-10-09T10:10:45;35.05;;;10.70;;
55003;SDS011;40900;52.710;6.438;2023-10-09T10:16:14;23.73;;;9.75;;
55003;SDS011;40900;52.710;6.438;2023-10-09T10:18:56;69.00;;;13.40;;
55003;SDS011;40900;52.710;6.438;2023-10-09T10:21:28;30.88;;;9.65;;
55003;SDS011;40900;52.710;6.438;2023-10-09T10:23:57;53.72;;;12.55;;
55003;SDS011;40900;52.710;6.438;2023-10-09T10:26:35;27.98;;;9.10;;
55003;SDS011;40900;52.710;6.438;2023-10-09T10:29:22;21.15;;;8.55;;
55003;SDS011;40900;52.710;6.438;2023-10-09T10:31:59;21.73;;;8.98;;
55003;SDS011;40900;52.710;6.438;2023-10-09T10:37:43;26.35;;;8.60;;
55003;SDS011;40900;52.710;6.438;2023-10-09T10:40:25;22.75;;;8.85;;
55003;SDS011;40900;52.710;6.438;2023-10-09T10:43:17;25.85;;;8.60;;
55003;SDS011;40900;52.710;6.438;2023-10-09T10:46:06;20.67;;;8.32;;
55003;SDS011;40900;52.710;6.438;2023-10-09T10:48:51;21.90;;;8.27;;
55003;SDS011;40900;52.710;6.438;2023-10-09T10:54:05;22.65;;;8.57;;
55003;SDS011;40900;52.710;6.438;2023-10-09T10:56:51;26.38;;;8.50;;
55003;SDS011;40900;52.710;6.438;2023-10-09T10:59:18;23.70;;;8.65;;
55003;SDS011;40900;52.710;6.438;2023-10-09T11:01:51;22.55;;;8.85;;
55003;SDS011;40900;52.710;6.438;2023-10-09T11:04:22;19.65;;;9.02;;
55003;SDS011;40900;52.710;6.438;2023-10-09T11:06:55;23.40;;;9.48;;
55003;SDS011;40900;52.710;6.438;2023-10-09T11:09:47;20.50;;;8.40;;
55003;SDS011;40900;52.710;6.438;2023-10-09T11:15:04;23.63;;;7.95;;
55003;SDS011;40900;52.710;6.438;2023-10-09T11:17:32;23.77;;;8.65;;
55003;SDS011;40900;52.710;6.438;2023-10-09T11:19:58;15.60;;;7.63;;
55003;SDS011;40900;52.710;6.438;2023-10-09T11:22:44;21.40;;;8.60;;
55003;SDS011;40900;52.710;6.438;2023-10-09T11:25:30;21.55;;;7.78;;
55003;SDS011;40900;52.710;6.438;2023-10-09T11:27:57;19.02;;;8.45;;
55003;SDS011;40900;52.710;6.438;2023-10-09T11:30:39;18.38;;;8.10;;
55003;SDS011;40900;52.710;6.438;2023-10-09T11:33:06;20.33;;;8.38;;
55003;SDS011;40900;52.710;6.438;2023-10-09T11:35:39;17.95;;;7.40;;
55003;SDS011;40900;52.710;6.438;2023-10-09T11:38:08;17.58;;;7.80;;
55003;SDS011;40900;52.710;6.438;2023-10-09T11:40:46;16.27;;;7.80;;
55003;SDS011;40900;52.710;6.438;2023-10-09T11:43:15;20.88;;;8.82;;
55003;SDS011;40900;52.710;6.438;2023-10-09T11:45:41;21.23;;;8.07;;
55003;SDS011;40900;52.710;6.438;2023-10-09T11:48:19;29.60;;;10.15;;
55003;SDS011;40900;52.710;6.438;2023-10-09T11:51:12;22.42;;;8.13;;
55003;SDS011;40900;52.710;6.438;2023-10-09T11:53:44;21.80;;;8.05;;
55003;SDS011;40900;52.710;6.438;2023-10-09T11:56:14;21.40;;;7.88;;
55003;SDS011;40900;52.710;6.438;2023-10-09T11:58:48;20.15;;;7.40;;
55003;SDS011;40900;52.710;6.438;2023-10-09T12:01:17;22.02;;;7.20;;
55003;SDS011;40900;52.710;6.438;2023-10-09T12:03:45;15.43;;;6.88;;
55003;SDS011;40900;52.710;6.438;2023-10-09T12:06:15;17.15;;;7.40;;
55003;SDS011;40900;52.710;6.438;2023-10-09T12:08:44;20.63;;;7.75;;
55003;SDS011;40900;52.710;6.438;2023-10-09T12:11:14;16.95;;;6.95;;
55003;SDS011;40900;52.710;6.438;2023-10-09T12:13:48;20.77;;;7.13;;
55003;SDS011;40900;52.710;6.438;2023-10-09T12:16:21;16.75;;;6.32;;
55003;SDS011;40900;52.710;6.438;2023-10-09T12:18:53;14.02;;;6.07;;
55003;SDS011;40900;52.710;6.438;2023-10-09T12:21:20;16.63;;;6.40;;
55003;SDS011;40900;52.710;6.438;2023-10-09T12:23:46;17.60;;;7.03;;
55003;SDS011;40900;52.710;6.438;2023-10-09T12:26:12;14.35;;;6.40;;
55003;SDS011;40900;52.710;6.438;2023-10-09T12:28:42;14.65;;;6.05;;
55003;SDS011;40900;52.710;6.438;2023-10-09T12:31:14;17.23;;;6.65;;
55003;SDS011;40900;52.710;6.438;2023-10-09T12:33:40;17.83;;;6.32;;
55003;SDS011;40900;52.710;6.438;2023-10-09T12:36:15;21.10;;;6.57;;
55003;SDS011;40900;52.710;6.438;2023-10-09T12:38:45;16.77;;;6.47;;
55003;SDS011;40900;52.710;6.438;2023-10-09T12:41:19;19.15;;;6.30;;
55003;SDS011;40900;52.710;6.438;2023-10-09T12:43:50;15.65;;;6.05;;
55003;SDS011;40900;52.710;6.438;2023-10-09T12:46:20;15.57;;;5.63;;
55003;SDS011;40900;52.710;6.438;2023-10-09T12:48:50;26.98;;;7.22;;
55003;SDS011;40900;52.710;6.438;2023-10-09T12:51:20;16.73;;;6.20;;
55003;SDS011;40900;52.710;6.438;2023-10-09T12:53:51;28.05;;;6.20;;
55003;SDS011;40900;52.710;6.438;2023-10-09T12:56:25;20.17;;;5.95;;
55003;SDS011;40900;52.710;6.438;2023-10-09T12:59:01;20.45;;;6.47;;
55003;SDS011;40900;52.710;6.438;2023-10-09T13:01:30;19.20;;;6.05;;
55003;SDS011;40900;52.710;6.438;2023-10-09T13:04:08;47.45;;;9.80;;
55003;SDS011;40900;52.710;6.438;2023-10-09T13:06:40;23.17;;;6.63;;
55003;SDS011;40900;52.710;6.438;2023-10-09T13:09:18;33.13;;;5.95;;
55003;SDS011;40900;52.710;6.438;2023-10-09T13:12:22;28.48;;;6.63;;
55003;SDS011;40900;52.710;6.438;2023-10-09T13:14:48;29.90;;;6.35;;
55003;SDS011;40900;52.710;6.438;2023-10-09T13:17:14;14.85;;;5.05;;
55003;SDS011;40900;52.710;6.438;2023-10-09T13:19:40;17.52;;;5.47;;
55003;SDS011;40900;52.710;6.438;2023-10-09T13:22:09;14.02;;;5.57;;
55003;SDS011;40900;52.710;6.438;2023-10-09T13:24:38;18.05;;;5.50;;
55003;SDS011;40900;52.710;6.438;2023-10-09T13:27:05;13.85;;;5.30;;
55003;SDS011;40900;52.710;6.438;2023-10-09T13:29:34;14.60;;;5.20;;
55003;SDS011;40900;52.710;6.438;2023-10-09T13:32:05;15.77;;;5.35;;
55003;SDS011;40900;52.710;6.438;2023-10-09T13:34:39;19.60;;;5.40;;
55003;SDS011;40900;52.710;6.438;2023-10-09T13:37:10;10.23;;;4.60;;
55003;SDS011;40900;52.710;6.438;2023-10-09T13:39:39;9.75;;;4.68;;
55003;SDS011;40900;52.710;6.438;2023-10-09T13:42:17;12.20;;;4.47;;
55003;SDS011;40900;52.710;6.438;2023-10-09T13:44:43;9.95;;;4.13;;
55003;SDS011;40900;52.710;6.438;2023-10-09T13:47:09;16.25;;;4.25;;
55003;SDS011;40900;52.710;6.438;2023-10-09T13:49:47;12.68;;;4.13;;
55003;SDS011;40900;52.710;6.438;2023-10-09T13:52:17;13.25;;;4.25;;
55003;SDS011;40900;52.710;6.438;2023-10-09T13:54:47;14.55;;;4.60;;
55003;SDS011;40900;52.710;6.438;2023-10-09T13:57:14;13.45;;;4.53;;
55003;SDS011;40900;52.710;6.438;2023-10-09T13:59:40;12.82;;;4.75;;
55003;SDS011;40900;52.710;6.438;2023-10-09T14:02:16;15.10;;;5.13;;
55003;SDS011;40900;52.710;6.438;2023-10-09T14:04:43;10.38;;;4.63;;
55003;SDS011;40900;52.710;6.438;2023-10-09T14:07:09;11.35;;;4.32;;
55003;SDS011;40900;52.710;6.438;2023-10-09T14:09:35;15.82;;;5.80;;
55003;SDS011;40900;52.710;6.438;2023-10-09T14:12:10;155.95;;;22.17;;
55003;SDS011;40900;52.710;6.438;2023-10-09T14:14:37;15.20;;;5.63;;
55003;SDS011;40900;52.710;6.438;2023-10-09T14:17:12;12.57;;;5.10;;
55003;SDS011;40900;52.710;6.438;2023-10-09T14:19:39;13.60;;;4.88;;
55003;SDS011;40900;52.710;6.438;2023-10-09T14:22:06;13.52;;;4.55;;
55003;SDS011;40900;52.710;6.438;2023-10-09T14:24:32;14.75;;;5.07;;
55003;SDS011;40900;52.710;6.438;2023-10-09T14:27:02;16.15;;;4.97;;
55003;SDS011;40900;52.710;6.438;2023-10-09T14:29:36;15.65;;;5.20;;
55003;SDS011;40900;52.710;6.438;2023-10-09T14:32:02;12.82;;;3.92;;
55003;SDS011;40900;52.710;6.438;2023-10-09T14:34:29;8.20;;;3.97;;
55003;SDS011;40900;52.710;6.438;2023-10-09T14:37:00;15.90;;;4.68;;
55003;SDS011;40900;52.710;6.438;2023-10-09T14:39:27;13.23;;;4.15;;
55003;SDS011;40900;52.710;6.438;2023-10-09T14:41:54;16.20;;;4.55;;
55003;SDS011;40900;52.710;6.438;2023-10-09T14:44:22;13.60;;;4.68;;
55003;SDS011;40900;52.710;6.438;2023-10-09T14:46:53;8.98;;;3.92;;
55003;SDS011;40900;52.710;6.438;2023-10-09T14:49:20;12.55;;;4.32;;
55003;SDS011;40900;52.710;6.438;2023-10-09T14:51:46;12.20;;;4.50;;
55003;SDS011;40900;52.710;6.438;2023-10-09T14:54:12;9.30;;;4.13;;
55003;SDS011;40900;52.710;6.438;2023-10-09T14:56:43;100.80;;;10.88;;
55003;SDS011;40900;52.710;6.438;2023-10-09T14:59:11;16.75;;;5.53;;
55003;SDS011;40900;52.710;6.438;2023-10-09T15:01:37;14.68;;;5.15;;
55003;SDS011;40900;52.710;6.438;2023-10-09T15:04:03;14.68;;;5.28;;
55003;SDS011;40900;52.710;6.438;2023-10-09T15:06:29;13.50;;;6.97;;
55003;SDS011;40900;52.710;6.438;2023-10-09T15:08:58;16.65;;;5.30;;
55003;SDS011;40900;52.710;6.438;2023-10-09T15:11:34;13.85;;;4.97;;
55003;SDS011;40900;52.710;6.438;2023-10-09T15:14:04;12.88;;;5.68;;
55003;SDS011;40900;52.710;6.438;2023-10-09T15:16:31;12.27;;;4.97;;
55003;SDS011;40900;52.710;6.438;2023-10-09T15:18:57;16.38;;;5.80;;
55003;SDS011;40900;52.710;6.438;2023-10-09T15:21:23;15.30;;;4.75;;
55003;SDS011;40900;52.710;6.438;2023-10-09T15:23:57;14.93;;;5.38;;
55003;SDS011;40900;52.710;6.438;2023-10-09T15:26:23;13.77;;;5.57;;
55003;SDS011;40900;52.710;6.438;2023-10-09T15:28:52;17.00;;;5.43;;
55003;SDS011;40900;52.710;6.438;2023-10-09T15:31:18;10.35;;;5.10;;
55003;SDS011;40900;52.710;6.438;2023-10-09T15:33:46;18.13;;;5.53;;
55003;SDS011;40900;52.710;6.438;2023-10-09T15:36:16;15.95;;;5.63;;